createdAt,value
2018-08-19T00:02:26.200Z,14.95
2018-08-19T00:05:06.964Z,15.09
2018-08-19T00:07:35.695Z,15.20
2018-08-19T00:10:05.679Z,15.14
2018-08-19T00:12:45.576Z,15.22
2018-08-19T00:15:15.601Z,15.24
2018-08-19T00:17:44.267Z,15.12
2018-08-19T00:20:14.571Z,15.15
2018-08-19T00:22:47.096Z,15.06
2018-08-19T00:25:26.783Z,14.98
2018-08-19T00:27:55.448Z,15.00
2018-08-19T00:30:27.924Z,15.06
2018-08-19T00:32:59.744Z,15.01
2018-08-19T00:35:29.083Z,14.93
2018-08-19T00:37:59.744Z,14.84
2018-08-19T00:40:29.341Z,14.83
2018-08-19T00:42:59.961Z,14.72
2018-08-19T00:45:29.347Z,14.83
2018-08-19T00:47:57.905Z,14.69
2018-08-19T00:50:30.960Z,14.65
2018-08-19T00:53:00.120Z,14.68
2018-08-19T00:55:36.793Z,14.68
2018-08-19T00:58:15.991Z,14.71
2018-08-19T01:00:44.833Z,14.65
2018-08-19T01:03:13.994Z,14.60
2018-08-19T01:05:46.775Z,14.58
2018-08-19T01:08:15.789Z,14.44
2018-08-19T01:10:46.872Z,14.48
2018-08-19T01:13:16.044Z,14.58
2018-08-19T01:15:46.191Z,14.58
2018-08-19T01:18:14.675Z,14.47
2018-08-19T01:20:43.902Z,14.45
2018-08-19T01:23:12.552Z,14.46
2018-08-19T01:25:40.990Z,14.54
2018-08-19T01:28:11.164Z,14.54
2018-08-19T01:30:39.795Z,14.43
2018-08-19T01:33:12.261Z,14.44
2018-08-19T01:35:43.360Z,14.30
2018-08-19T01:38:14.767Z,14.26
2018-08-19T01:40:43.763Z,14.19
2018-08-19T01:43:12.120Z,14.11
2018-08-19T01:45:42.580Z,14.22
2018-08-19T01:48:12.168Z,14.23
2018-08-19T01:50:42.856Z,14.28
2018-08-19T01:53:18.320Z,14.25
2018-08-19T01:55:47.443Z,14.19
2018-08-19T01:58:18.416Z,14.19
2018-08-19T02:00:48.324Z,14.12
2018-08-19T02:03:18.029Z,14.11
2018-08-19T02:05:47.371Z,14.06
2018-08-19T02:08:15.909Z,14.07
2018-08-19T02:10:44.616Z,14.13
2018-08-19T02:13:13.703Z,14.14
2018-08-19T02:15:42.717Z,14.18
2018-08-19T02:18:16.691Z,14.16
2018-08-19T02:20:46.636Z,14.09
2018-08-19T02:23:17.500Z,13.98
2018-08-19T02:25:48.063Z,13.85
2018-08-19T02:28:22.875Z,13.82
2018-08-19T02:31:00.175Z,13.75
2018-08-19T02:33:33.514Z,13.70
2018-08-19T02:36:08.557Z,13.77
2018-08-19T02:38:38.795Z,13.81
2018-08-19T02:41:07.589Z,13.77
2018-08-19T02:43:46.695Z,13.71
2018-08-19T02:46:15.042Z,13.74
2018-08-19T02:48:53.580Z,13.74
2018-08-19T02:51:23.571Z,13.73
2018-08-19T02:53:53.499Z,13.64
2018-08-19T02:56:22.281Z,13.59
2018-08-19T02:58:52.199Z,13.32
2018-08-19T03:01:20.614Z,13.53
2018-08-19T03:03:49.080Z,13.52
2018-08-19T03:06:19.349Z,13.55
2018-08-19T03:08:59.975Z,13.56
2018-08-19T03:11:30.032Z,13.51
2018-08-19T03:14:00.499Z,13.42
2018-08-19T03:16:29.566Z,13.41
2018-08-19T03:18:59.778Z,13.35
2018-08-19T03:21:29.950Z,13.36
2018-08-19T03:23:59.295Z,13.34
2018-08-19T03:26:32.519Z,13.19
2018-08-19T03:29:07.787Z,13.22
2018-08-19T03:31:36.756Z,13.20
2018-08-19T03:34:08.218Z,12.93
2018-08-19T03:36:38.527Z,12.92
2018-08-19T03:39:17.124Z,13.07
2018-08-19T03:41:47.076Z,13.16
2018-08-19T03:44:16.239Z,13.24
2018-08-19T03:46:44.560Z,13.22
2018-08-19T03:49:13.528Z,13.15
2018-08-19T03:51:42.096Z,13.12
2018-08-19T03:54:11.806Z,13.09
2018-08-19T03:56:41.621Z,13.08
2018-08-19T03:59:13.608Z,13.02
2018-08-19T04:01:43.851Z,13.03
2018-08-19T04:04:16.041Z,12.99
2018-08-19T04:06:46.137Z,12.92
2018-08-19T04:09:15.320Z,12.97
2018-08-19T04:11:43.767Z,12.68
2018-08-19T04:14:26.798Z,12.89
2018-08-19T04:16:57.552Z,12.92
2018-08-19T04:19:27.695Z,12.89
2018-08-19T04:22:01.255Z,12.74
2018-08-19T04:24:32.315Z,12.96
2018-08-19T04:27:07.238Z,13.05
2018-08-19T04:29:36.096Z,13.03
2018-08-19T04:32:07.644Z,12.96
2018-08-19T04:34:37.557Z,12.73
2018-08-19T04:37:07.579Z,12.44
2018-08-19T04:39:37.307Z,12.45
2018-08-19T04:42:07.546Z,12.88
2018-08-19T04:44:37.293Z,12.49
2018-08-19T04:47:20.128Z,12.77
2018-08-19T04:49:52.796Z,12.93
2018-08-19T04:52:24.357Z,12.99
2018-08-19T04:54:53.760Z,12.71
2018-08-19T04:57:22.543Z,12.87
2018-08-19T04:59:52.703Z,13.16
2018-08-19T05:02:22.098Z,12.86
2018-08-19T05:04:51.641Z,13.42
2018-08-19T05:07:21.377Z,13.79
2018-08-19T05:09:50.697Z,14.07
2018-08-19T05:12:19.853Z,14.05
2018-08-19T05:14:50.315Z,14.27
2018-08-19T05:17:18.982Z,14.49
2018-08-19T05:19:48.491Z,14.64
2018-08-19T05:22:16.847Z,14.82
2018-08-19T05:24:47.011Z,14.94
2018-08-19T05:27:18.172Z,14.63
2018-08-19T05:29:51.240Z,15.25
2018-08-19T05:32:20.835Z,14.23
2018-08-19T05:34:49.796Z,15.41
2018-08-19T05:37:19.624Z,15.27
2018-08-19T05:39:53.105Z,14.96
2018-08-19T05:42:24.091Z,15.63
2018-08-19T05:44:53.388Z,15.08
2018-08-19T05:47:23.929Z,15.80
2018-08-19T05:49:53.891Z,15.33
2018-08-19T05:52:25.031Z,15.15
2018-08-19T05:54:57.588Z,15.53
2018-08-19T05:57:27.044Z,15.83
2018-08-19T05:59:56.513Z,16.86
2018-08-19T06:02:31.276Z,16.85
2018-08-19T06:05:00.542Z,18.19
2018-08-19T06:07:30.871Z,18.27
2018-08-19T06:10:01.789Z,18.46
2018-08-19T06:12:30.764Z,18.67
2018-08-19T06:15:02.589Z,19.06
2018-08-19T06:17:31.469Z,18.94
2018-08-19T06:20:00.731Z,19.64
2018-08-19T06:22:34.556Z,20.12
2018-08-19T06:25:04.580Z,20.74
2018-08-19T06:27:42.655Z,20.44
2018-08-19T06:30:11.756Z,20.83
2018-08-19T06:32:41.650Z,19.74
2018-08-19T06:35:10.252Z,19.20
2018-08-19T06:37:39.845Z,21.18
2018-08-19T06:40:11.051Z,21.42
2018-08-19T06:42:40.365Z,22.60
2018-08-19T06:45:09.700Z,22.57
2018-08-19T06:47:40.507Z,20.72
2018-08-19T06:50:18.871Z,20.58
2018-08-19T06:52:47.856Z,21.91
2018-08-19T06:55:17.399Z,21.94
2018-08-19T06:57:46.124Z,22.93
2018-08-19T07:00:21.428Z,22.23
2018-08-19T07:02:49.756Z,21.44
2018-08-19T07:05:19.236Z,22.81
2018-08-19T07:07:48.617Z,24.99
2018-08-19T07:10:23.257Z,25.29
2018-08-19T07:12:56.153Z,25.41
2018-08-19T07:15:24.822Z,25.92
2018-08-19T07:17:55.116Z,25.92
2018-08-19T07:20:23.830Z,26.03
2018-08-19T07:22:52.705Z,27.06
2018-08-19T07:25:22.020Z,25.83
2018-08-19T07:27:50.562Z,24.92
2018-08-19T07:30:19.298Z,26.93
2018-08-19T07:32:48.104Z,27.06
2018-08-19T07:35:16.453Z,25.73
2018-08-19T07:37:46.164Z,26.04
2018-08-19T07:40:15.153Z,26.20
2018-08-19T07:42:43.498Z,27.26
2018-08-19T07:45:11.851Z,26.47
2018-08-19T07:47:40.237Z,27.28
2018-08-19T07:50:10.804Z,27.09
2018-08-19T07:52:39.610Z,27.14
2018-08-19T07:55:09.180Z,26.28
2018-08-19T07:57:41.772Z,24.43
2018-08-19T08:00:12.283Z,26.01
2018-08-19T08:02:40.733Z,26.87
2018-08-19T08:05:11.153Z,27.29
2018-08-19T08:07:47.876Z,28.11
2018-08-19T08:10:18.466Z,27.53
2018-08-19T08:12:54.320Z,28.37
2018-08-19T08:15:23.775Z,26.57
2018-08-19T08:17:53.088Z,26.87
2018-08-19T08:20:22.253Z,27.18
2018-08-19T08:22:50.629Z,28.43
2018-08-19T08:25:19.003Z,28.10
2018-08-19T08:27:47.648Z,26.95
2018-08-19T08:30:16.103Z,26.51
2018-08-19T08:32:46.712Z,27.27
2018-08-19T08:35:18.600Z,28.68
2018-08-19T08:37:48.261Z,29.65
2018-08-19T08:40:17.781Z,28.98
2018-08-19T08:42:47.084Z,28.71
2018-08-19T08:45:19.654Z,29.61
2018-08-19T08:47:48.412Z,29.72
2018-08-19T08:50:17.292Z,29.48
2018-08-19T08:52:46.343Z,29.45
2018-08-19T08:55:14.723Z,28.65
2018-08-19T08:57:44.515Z,29.62
2018-08-19T09:00:13.903Z,29.46
2018-08-19T09:02:43.033Z,29.52
2018-08-19T09:05:14.440Z,28.97
2018-08-19T09:07:43.003Z,28.82
2018-08-19T09:10:15.059Z,28.44
2018-08-19T09:12:56.295Z,30.19
2018-08-19T09:15:25.051Z,28.71
2018-08-19T09:17:55.492Z,28.94
2018-08-19T09:20:25.540Z,30.04
2018-08-19T09:22:54.569Z,31.09
2018-08-19T09:25:24.192Z,30.31
2018-08-19T09:27:53.656Z,30.26
2018-08-19T09:30:30.319Z,30.88
2018-08-19T09:33:00.985Z,30.79
2018-08-19T09:35:31.732Z,30.67
2018-08-19T09:38:05.733Z,31.19
2018-08-19T09:40:36.044Z,31.59
2018-08-19T09:43:07.599Z,31.14
2018-08-19T09:45:36.396Z,31.93
2018-08-19T09:48:07.048Z,31.69
2018-08-19T09:50:37.427Z,30.15
2018-08-19T09:53:07.823Z,30.87
2018-08-19T09:55:44.499Z,31.54
2018-08-19T09:58:19.923Z,31.11
2018-08-19T10:00:53.380Z,30.40
2018-08-19T10:03:24.980Z,30.06
2018-08-19T10:05:54.803Z,31.37
2018-08-19T10:08:26.715Z,31.96
2018-08-19T10:10:55.764Z,31.59
2018-08-19T10:13:24.392Z,32.28
2018-08-19T10:15:54.111Z,31.65
2018-08-19T10:18:23.551Z,30.11
2018-08-19T10:20:53.239Z,31.12
2018-08-19T10:23:25.632Z,29.45
2018-08-19T10:25:54.670Z,30.41
2018-08-19T10:28:25.468Z,30.69
2018-08-19T10:30:57.921Z,32.57
2018-08-19T10:33:27.374Z,32.30
2018-08-19T10:35:59.696Z,32.73
2018-08-19T10:38:28.742Z,33.25
2018-08-19T10:41:03.693Z,32.80
2018-08-19T10:43:32.943Z,31.54
2018-08-19T10:46:03.853Z,30.41
2018-08-19T10:48:32.996Z,29.92
2018-08-19T10:51:02.708Z,30.39
2018-08-19T10:53:32.397Z,29.05
2018-08-19T10:56:01.944Z,29.49
2018-08-19T10:58:31.364Z,30.08
2018-08-19T11:01:00.145Z,30.48
2018-08-19T11:03:29.776Z,31.68
2018-08-19T11:06:01.068Z,33.05
2018-08-19T11:08:30.360Z,32.58
2018-08-19T11:11:00.531Z,33.45
2018-08-19T11:13:31.506Z,33.82
2018-08-19T11:16:00.708Z,32.44
2018-08-19T11:18:36.933Z,32.92
2018-08-19T11:21:12.370Z,32.79
2018-08-19T11:23:43.021Z,32.75
2018-08-19T11:26:12.812Z,32.18
2018-08-19T11:28:52.354Z,33.69
2018-08-19T11:31:27.666Z,32.55
2018-08-19T11:33:57.989Z,32.68
2018-08-19T11:36:32.981Z,34.48
2018-08-19T11:39:04.463Z,32.90
2018-08-19T11:41:35.435Z,33.38
2018-08-19T11:44:07.990Z,34.01
2018-08-19T11:46:36.943Z,32.46
2018-08-19T11:49:12.940Z,31.64
2018-08-19T11:51:54.141Z,32.27
2018-08-19T11:54:25.792Z,33.29
2018-08-19T11:57:01.027Z,31.03
2018-08-19T11:59:49.411Z,31.73
2018-08-19T12:02:21.223Z,31.65
2018-08-19T12:04:50.816Z,32.59
2018-08-19T12:07:21.805Z,33.02
2018-08-19T12:09:57.627Z,32.46
2018-08-19T12:12:43.172Z,33.75
2018-08-19T12:15:12.619Z,31.63
2018-08-19T12:17:45.202Z,31.94
2018-08-19T12:20:18.488Z,32.06
2018-08-19T12:22:51.697Z,32.04
2018-08-19T12:25:22.528Z,33.72
2018-08-19T12:27:52.304Z,32.28
2018-08-19T12:30:21.286Z,31.83
2018-08-19T12:32:51.457Z,32.45
2018-08-19T12:35:21.679Z,32.48
2018-08-19T12:37:50.968Z,32.44
2018-08-19T12:40:20.713Z,32.05
2018-08-19T12:42:55.792Z,31.75
2018-08-19T12:45:25.957Z,32.27
2018-08-19T12:47:55.944Z,31.44
2018-08-19T12:50:25.600Z,30.48
2018-08-19T12:52:54.667Z,31.52
2018-08-19T12:55:24.374Z,31.14
2018-08-19T12:58:02.425Z,31.64
2018-08-19T13:00:31.575Z,31.53
2018-08-19T13:03:02.788Z,31.80
2018-08-19T13:05:34.244Z,32.71
2018-08-19T13:08:04.668Z,33.20
2018-08-19T13:10:39.843Z,32.08
2018-08-19T13:13:09.268Z,31.22
2018-08-19T13:15:40.346Z,31.43
2018-08-19T13:18:10.292Z,31.59
2018-08-19T13:20:41.797Z,31.94
2018-08-19T13:23:10.836Z,32.13
2018-08-19T13:25:47.944Z,32.53
2018-08-19T13:28:17.205Z,32.53
2018-08-19T13:30:47.189Z,32.49
2018-08-19T13:33:17.908Z,33.33
2018-08-19T13:35:47.025Z,32.77
2018-08-19T13:38:30.861Z,32.71
2018-08-19T13:41:00.200Z,30.34
2018-08-19T13:43:29.534Z,30.01
2018-08-19T13:45:59.640Z,31.01
2018-08-19T13:48:28.672Z,30.70
2018-08-19T13:50:58.056Z,31.81
2018-08-19T13:53:29.161Z,31.15
2018-08-19T13:55:58.464Z,30.74
2018-08-19T13:58:28.725Z,30.18
2018-08-19T14:01:00.119Z,30.31
2018-08-19T14:03:30.986Z,30.71
2018-08-19T14:06:03.066Z,29.94
2018-08-19T14:08:34.648Z,30.43
2018-08-19T14:11:06.224Z,30.31
2018-08-19T14:13:36.014Z,29.92
2018-08-19T14:16:06.260Z,29.64
2018-08-19T14:18:36.632Z,29.53
2018-08-19T14:21:07.058Z,29.91
2018-08-19T14:23:38.843Z,29.79
2018-08-19T14:26:12.588Z,29.08
2018-08-19T14:28:48.180Z,29.05
2018-08-19T14:31:17.369Z,29.26
2018-08-19T14:33:47.598Z,28.80
2018-08-19T14:36:16.956Z,29.44
2018-08-19T14:38:46.664Z,29.60
2018-08-19T14:41:16.015Z,29.31
2018-08-19T14:44:01.189Z,29.31
2018-08-19T14:46:35.998Z,29.37
2018-08-19T14:49:06.323Z,29.05
2018-08-19T14:51:47.263Z,29.28
2018-08-19T14:54:18.044Z,29.23
2018-08-19T14:56:50.548Z,29.61
2018-08-19T14:59:19.744Z,29.27
2018-08-19T15:01:49.671Z,29.26
2018-08-19T15:04:20.155Z,29.33
2018-08-19T15:06:50.140Z,28.99
2018-08-19T15:09:32.568Z,29.20
2018-08-19T15:12:17.225Z,28.81
2018-08-19T15:14:50.725Z,28.94
2018-08-19T15:17:22.001Z,29.19
2018-08-19T15:19:57.986Z,29.24
2018-08-19T15:22:27.998Z,29.14
2018-08-19T15:25:00.295Z,29.18
2018-08-19T15:27:29.728Z,28.61
2018-08-19T15:30:00.913Z,28.58
2018-08-19T15:32:32.143Z,28.57
2018-08-19T15:35:02.096Z,28.88
2018-08-19T15:37:38.212Z,28.73
2018-08-19T15:40:07.683Z,28.74
2018-08-19T15:42:38.073Z,28.44
2018-08-19T15:45:08.189Z,28.31
2018-08-19T15:47:40.153Z,28.68
2018-08-19T15:50:19.162Z,28.77
2018-08-19T15:52:49.704Z,28.43
2018-08-19T15:55:19.840Z,28.28
2018-08-19T15:57:48.407Z,28.17
2018-08-19T16:00:17.568Z,28.21
2018-08-19T16:02:49.237Z,28.06
2018-08-19T16:05:20.636Z,28.11
2018-08-19T16:07:54.752Z,28.38
2018-08-19T16:10:28.812Z,28.43
2018-08-19T16:12:59.147Z,28.25
2018-08-19T16:15:32.422Z,28.34
2018-08-19T16:18:04.338Z,28.19
2018-08-19T16:20:35.477Z,28.17
2018-08-19T16:23:06.046Z,27.88
2018-08-19T16:25:38.200Z,27.97
2018-08-19T16:28:08.700Z,27.85
2018-08-19T16:30:38.433Z,27.93
2018-08-19T16:33:08.621Z,27.96
2018-08-19T16:35:37.485Z,28.12
2018-08-19T16:38:08.216Z,28.22
2018-08-19T16:40:37.239Z,27.90
2018-08-19T16:43:05.878Z,27.82
2018-08-19T16:45:36.022Z,27.71
2018-08-19T16:48:09.566Z,27.90
2018-08-19T16:50:38.616Z,27.74
2018-08-19T16:53:10.012Z,27.65
2018-08-19T16:55:40.099Z,27.55
2018-08-19T16:58:09.096Z,27.59
2018-08-19T17:00:41.159Z,27.57
2018-08-19T17:03:28.628Z,27.47
2018-08-19T17:06:00.449Z,27.34
2018-08-19T17:08:30.783Z,27.21
2018-08-19T17:11:01.030Z,27.25
2018-08-19T17:13:29.953Z,27.44
2018-08-19T17:16:02.519Z,27.36
2018-08-19T17:18:37.091Z,27.24
2018-08-19T17:21:05.839Z,27.15
2018-08-19T17:23:41.196Z,27.03
2018-08-19T17:26:16.616Z,27.03
2018-08-19T17:28:46.576Z,26.93
2018-08-19T17:31:18.020Z,27.09
2018-08-19T17:36:50.499Z,26.86
2018-08-19T17:39:24.207Z,26.83
2018-08-19T17:41:54.528Z,26.68
2018-08-19T17:44:23.852Z,26.73
2018-08-19T17:46:55.477Z,26.56
2018-08-19T17:49:26.828Z,26.42
2018-08-19T17:52:02.779Z,26.24
2018-08-19T17:54:35.340Z,26.21
2018-08-19T17:57:04.209Z,26.33
2018-08-19T17:59:38.380Z,26.25
2018-08-19T18:02:09.020Z,26.17
2018-08-19T18:04:45.464Z,26.12
2018-08-19T18:07:19.401Z,26.09
2018-08-19T18:09:55.808Z,25.96
2018-08-19T18:12:29.992Z,25.91
2018-08-19T18:15:00.843Z,25.82
2018-08-19T18:17:33.949Z,25.44
2018-08-19T18:20:26.105Z,25.19
2018-08-19T18:22:58.500Z,25.05
2018-08-19T18:25:29.393Z,24.73
2018-08-19T18:28:00.388Z,24.70
2018-08-19T18:30:30.177Z,24.61
2018-08-19T18:33:03.651Z,24.51
2018-08-19T18:35:33.909Z,24.24
2018-08-19T18:38:03.150Z,24.04
2018-08-19T18:40:36.180Z,24.16
2018-08-19T18:43:06.040Z,24.02
2018-08-19T18:45:38.173Z,24.00
2018-08-19T18:48:08.465Z,23.88
2018-08-19T18:50:37.688Z,23.90
2018-08-19T18:53:08.264Z,23.47
2018-08-19T18:55:42.462Z,23.62
2018-08-19T18:58:12.921Z,23.56
2018-08-19T19:00:49.213Z,23.41
2018-08-19T19:03:18.433Z,23.39
2018-08-19T19:05:49.152Z,22.99
2018-08-19T19:08:18.844Z,22.69
2018-08-19T19:10:58.365Z,22.45
2018-08-19T19:13:28.672Z,22.23
2018-08-19T19:15:58.008Z,21.90
2018-08-19T19:18:26.978Z,21.81
2018-08-19T19:21:05.515Z,21.92
2018-08-19T19:23:38.304Z,21.82
2018-08-19T19:26:08.656Z,21.64
2018-08-19T19:28:37.603Z,21.64
2018-08-19T19:31:11.791Z,21.53
2018-08-19T19:33:41.020Z,21.42
2018-08-19T19:36:16.011Z,21.29
2018-08-19T19:38:49.137Z,21.27
2018-08-19T19:41:23.967Z,21.35
2018-08-19T19:43:52.311Z,21.18
2018-08-19T19:46:20.868Z,21.12
2018-08-19T19:48:53.579Z,21.13
2018-08-19T19:51:23.533Z,21.17
2018-08-19T19:53:53.607Z,21.12
2018-08-19T19:56:22.276Z,21.00
2018-08-19T19:58:51.796Z,20.88
2018-08-19T20:01:22.248Z,20.78
2018-08-19T20:03:53.996Z,20.68
2018-08-19T20:06:25.090Z,20.57
2018-08-19T20:08:53.711Z,20.42
2018-08-19T20:11:30.063Z,20.41
2018-08-19T20:14:03.159Z,20.45
2018-08-19T20:16:31.492Z,20.32
2018-08-19T20:19:01.947Z,20.30
2018-08-19T20:21:34.446Z,20.22
2018-08-19T20:24:04.408Z,19.98
2018-08-19T20:26:33.182Z,20.09
2018-08-19T20:29:03.875Z,20.15
2018-08-19T20:31:33.388Z,20.15
2018-08-19T20:34:04.464Z,20.07
2018-08-19T20:36:33.112Z,19.85
2018-08-19T20:39:05.493Z,19.97
2018-08-19T20:41:34.264Z,19.97
2018-08-19T20:44:02.956Z,19.94
2018-08-19T20:46:32.827Z,19.79
2018-08-19T20:49:01.865Z,19.78
2018-08-19T20:51:30.204Z,19.79
2018-08-19T20:54:01.485Z,19.80
2018-08-19T20:56:30.767Z,19.84
2018-08-19T21:25:06.496Z,18.94
2018-08-19T21:27:36.041Z,18.73
2018-08-19T21:30:05.400Z,18.63
2018-08-19T21:32:34.720Z,18.58
2018-08-19T21:35:04.683Z,18.43
2018-08-19T21:37:36.480Z,18.53
2018-08-19T21:40:06.163Z,18.40
2018-08-19T21:42:54.399Z,18.21
2018-08-19T21:45:25.012Z,18.29
2018-08-19T21:47:55.997Z,18.18
2018-08-19T21:50:25.217Z,18.06
2018-08-19T21:53:08.585Z,18.15
2018-08-19T21:55:39.256Z,18.01
2018-08-19T21:58:10.516Z,17.95
2018-08-19T22:00:45.316Z,17.88
2018-08-19T22:03:21.081Z,17.91
2018-08-19T22:05:51.112Z,18.03
2018-08-19T22:08:23.416Z,17.62
2018-08-19T22:10:55.455Z,17.74
2018-08-19T22:13:24.424Z,17.56
2018-08-19T22:15:53.203Z,17.71
2018-08-19T22:18:22.709Z,17.45
2018-08-19T22:21:24.404Z,17.31
2018-08-19T22:23:56.262Z,17.33
2018-08-19T22:26:24.936Z,17.18
2018-08-19T22:29:08.942Z,17.05
2018-08-19T22:31:37.364Z,17.13
2018-08-19T22:34:05.729Z,17.10
2018-08-19T22:36:34.133Z,17.15
2018-08-19T22:39:03.135Z,17.19
2018-08-19T22:41:33.454Z,17.15
2018-08-19T22:44:01.956Z,17.11
2018-08-19T22:46:31.403Z,17.19
2018-08-19T22:48:59.832Z,17.28
2018-08-19T22:51:33.092Z,17.11
2018-08-19T22:54:02.190Z,16.92
2018-08-19T22:56:31.279Z,17.02
2018-08-19T22:59:00.165Z,16.97
2018-08-19T23:01:36.128Z,17.01
2018-08-19T23:04:07.408Z,16.84
2018-08-19T23:06:37.036Z,17.01
2018-08-19T23:09:07.968Z,17.09
2018-08-19T23:11:44.851Z,16.92
2018-08-19T23:14:25.895Z,16.88
2018-08-19T23:16:55.540Z,16.74
2018-08-19T23:19:26.209Z,16.75
2018-08-19T23:21:54.928Z,16.82
2018-08-19T23:24:24.589Z,16.70
2018-08-19T23:26:54.195Z,16.77
2018-08-19T23:29:26.574Z,16.87
2018-08-19T23:31:56.300Z,16.65
2018-08-19T23:34:25.428Z,16.75
2018-08-19T23:36:54.471Z,16.61
2018-08-19T23:39:23.847Z,16.78
2018-08-19T23:41:52.604Z,16.66
2018-08-19T23:44:21.953Z,16.72
2018-08-19T23:46:53.583Z,16.55
2018-08-19T23:49:22.987Z,16.61
2018-08-19T23:51:55.945Z,16.52
2018-08-19T23:54:26.261Z,16.47
2018-08-19T23:56:59.839Z,16.46
2018-08-19T23:59:39.197Z,16.34
